createdAt,value
2019-05-06T00:00:16.944Z,54.37
2019-05-06T00:02:18.538Z,54.54
2019-05-06T00:04:20.128Z,54.96
2019-05-06T00:06:23.648Z,54.77
2019-05-06T00:08:23.761Z,54.88
2019-05-06T00:10:25.057Z,55.43
2019-05-06T00:12:26.649Z,55.25
2019-05-06T00:14:28.226Z,55.57
2019-05-06T00:16:29.844Z,55.67
2019-05-06T00:18:33.940Z,55.70
2019-05-06T00:20:34.746Z,56.16
2019-05-06T00:22:34.738Z,56.66
2019-05-06T00:24:39.224Z,56.21
2019-05-06T00:26:47.577Z,56.84
2019-05-06T00:28:49.161Z,56.39
2019-05-06T00:30:50.772Z,56.86
2019-05-06T00:32:53.818Z,56.75
2019-05-06T00:34:54.623Z,56.04
2019-05-06T00:36:55.679Z,56.45
2019-05-06T00:38:57.320Z,56.42
2019-05-06T00:41:07.400Z,56.64
2019-05-06T00:43:08.988Z,56.35
2019-05-06T00:45:10.627Z,56.06
2019-05-06T00:47:13.556Z,56.46
2019-05-06T00:49:14.371Z,56.50
2019-05-06T00:51:15.704Z,56.59
2019-05-06T00:53:18.173Z,56.70
2019-05-06T00:55:19.784Z,57.02
2019-05-06T00:57:23.394Z,56.74
2019-05-06T00:59:23.855Z,56.69
2019-05-06T01:01:29.508Z,56.46
2019-05-06T01:03:26.312Z,56.26
2019-05-06T01:05:27.916Z,56.42
2019-05-06T01:07:29.519Z,55.98
2019-05-06T01:09:31.255Z,56.40
2019-05-06T01:11:34.596Z,56.18
2019-05-06T01:13:36.963Z,56.29
2019-05-06T01:15:38.707Z,56.02
2019-05-06T01:17:40.324Z,56.07
2019-05-06T01:19:41.941Z,56.02
2019-05-06T01:21:44.702Z,55.55
2019-05-06T01:23:45.176Z,55.74
2019-05-06T01:25:46.779Z,56.02
2019-05-06T01:27:48.425Z,56.03
2019-05-06T01:29:50.068Z,55.83
2019-05-06T01:31:54.225Z,55.90
2019-05-06T01:33:53.620Z,55.93
2019-05-06T01:35:55.019Z,55.47
2019-05-06T01:38:06.048Z,55.55
2019-05-06T01:40:08.478Z,55.68
2019-05-06T01:42:10.540Z,55.71
2019-05-06T01:44:13.657Z,56.09
2019-05-06T01:46:14.043Z,55.64
2019-05-06T01:48:15.506Z,55.31
2019-05-06T01:50:17.148Z,55.62
2019-05-06T01:52:18.766Z,55.77
2019-05-06T01:54:20.380Z,55.77
2019-05-06T01:56:23.965Z,55.81
2019-05-06T01:58:24.298Z,55.71
2019-05-06T02:00:25.272Z,55.75
2019-05-06T02:02:26.847Z,55.53
2019-05-06T02:04:28.448Z,55.27
2019-05-06T02:06:30.040Z,55.38
2019-05-06T02:08:33.578Z,55.24
2019-05-06T02:10:34.959Z,55.46
2019-05-06T02:12:34.975Z,55.28
2019-05-06T02:14:36.583Z,55.26
2019-05-06T02:16:38.364Z,55.01
2019-05-06T02:18:39.952Z,55.32
2019-05-06T02:20:41.551Z,55.43
2019-05-06T02:22:46.024Z,55.54
2019-05-06T02:24:50.288Z,55.57
2019-05-06T02:26:53.728Z,55.43
2019-05-06T02:28:54.526Z,55.41
2019-05-06T02:30:56.000Z,55.77
2019-05-06T02:32:58.186Z,56.31
2019-05-06T02:35:14.975Z,56.01
2019-05-06T02:37:16.458Z,56.26
2019-05-06T02:39:18.045Z,56.68
2019-05-06T02:41:23.052Z,56.21
2019-05-06T02:43:23.183Z,54.96
2019-05-06T02:45:23.948Z,54.97
2019-05-06T02:47:27.302Z,55.12
2019-05-06T02:49:33.069Z,55.31
2019-05-06T02:51:33.447Z,54.59
2019-05-06T02:53:34.744Z,53.69
2019-05-06T02:55:36.448Z,54.78
2019-05-06T02:57:38.029Z,54.32
2019-05-06T02:59:39.653Z,53.84
2019-05-06T03:01:43.275Z,53.42
2019-05-06T03:03:43.555Z,53.32
2019-05-06T03:05:44.602Z,53.40
2019-05-06T03:07:46.236Z,53.37
2019-05-06T03:09:47.932Z,53.51
2019-05-06T03:11:49.528Z,53.35
2019-05-06T03:13:53.702Z,53.14
2019-05-06T03:15:54.059Z,52.99
2019-05-06T03:17:55.425Z,52.80
2019-05-06T03:19:56.165Z,52.59
2019-05-06T03:22:06.727Z,52.48
2019-05-06T03:24:14.732Z,52.34
2019-05-06T03:26:15.896Z,52.13
2019-05-06T03:28:17.484Z,52.04
2019-05-06T03:30:19.119Z,51.98
2019-05-06T03:32:24.639Z,51.90
2019-05-06T03:34:48.894Z,51.85
2019-05-06T03:36:27.316Z,51.86
2019-05-06T03:38:25.916Z,51.88
2019-05-06T03:40:27.564Z,51.86
2019-05-06T03:42:29.171Z,51.90
2019-05-06T03:44:33.078Z,52.02
2019-05-06T03:46:33.615Z,52.15
2019-05-06T03:48:52.900Z,52.29
2019-05-06T03:50:55.675Z,52.27
2019-05-06T03:52:56.045Z,52.44
2019-05-06T03:54:54.860Z,52.56
2019-05-06T03:56:56.450Z,52.53
2019-05-06T03:58:58.069Z,52.68
2019-05-06T04:00:59.656Z,52.83
2019-05-06T04:03:05.177Z,52.73
2019-05-06T04:05:06.783Z,52.98
2019-05-06T04:07:08.375Z,53.04
2019-05-06T04:09:13.039Z,53.08
2019-05-06T04:11:13.597Z,53.23
2019-05-06T04:13:13.582Z,53.19
2019-05-06T04:15:15.100Z,53.13
2019-05-06T04:17:16.738Z,53.20
2019-05-06T04:19:34.095Z,53.20
2019-05-06T04:21:40.171Z,53.11
2019-05-06T04:23:43.665Z,53.23
2019-05-06T04:25:58.829Z,53.32
2019-05-06T04:28:02.931Z,53.25
2019-05-06T04:30:07.020Z,53.23
2019-05-06T04:32:08.629Z,53.07
2019-05-06T04:34:17.998Z,52.87
2019-05-06T04:36:13.157Z,52.66
2019-05-06T04:38:14.073Z,52.46
2019-05-06T04:40:15.205Z,52.26
2019-05-06T04:42:16.796Z,52.07
2019-05-06T04:44:18.409Z,51.79
2019-05-06T04:46:23.372Z,51.63
2019-05-06T04:48:23.828Z,51.48
2019-05-06T04:50:24.149Z,51.35
2019-05-06T04:52:26.098Z,51.21
2019-05-06T04:54:26.820Z,51.13
2019-05-06T04:56:28.323Z,51.06
2019-05-06T04:58:29.945Z,50.95
2019-05-06T05:00:33.071Z,50.90
2019-05-06T05:02:33.817Z,50.86
2019-05-06T05:04:36.917Z,50.92
2019-05-06T05:06:36.520Z,50.89
2019-05-06T05:08:38.150Z,50.84
2019-05-06T05:10:59.468Z,50.74
2019-05-06T05:13:06.030Z,50.74
2019-05-06T05:15:23.280Z,50.68
2019-05-06T05:17:42.556Z,50.69
2019-05-06T05:19:44.126Z,50.68
2019-05-06T05:21:45.709Z,50.67
2019-05-06T05:23:47.293Z,50.69
2019-05-06T05:25:48.876Z,50.61
2019-05-06T05:27:50.460Z,50.59
2019-05-06T05:29:52.302Z,50.55
2019-05-06T05:31:53.718Z,50.63
2019-05-06T05:33:55.302Z,50.75
2019-05-06T05:35:56.898Z,50.95
2019-05-06T05:37:58.486Z,51.04
2019-05-06T05:40:00.068Z,51.21
2019-05-06T05:42:02.994Z,51.32
2019-05-06T05:44:07.306Z,51.40
2019-05-06T05:46:08.916Z,51.49
2019-05-06T05:48:28.179Z,51.30
2019-05-06T05:50:32.340Z,51.21
2019-05-06T05:52:32.858Z,51.20
2019-05-06T05:54:33.596Z,51.21
2019-05-06T05:56:35.228Z,51.23
2019-05-06T05:58:36.816Z,51.15
2019-05-06T06:00:38.424Z,51.09
2019-05-06T06:02:43.431Z,51.05
2019-05-06T06:04:53.764Z,51.06
2019-05-06T06:06:43.400Z,50.94
2019-05-06T06:08:44.975Z,50.90
2019-05-06T06:10:46.615Z,50.81
2019-05-06T06:12:48.232Z,50.71
2019-05-06T06:14:52.533Z,50.57
2019-05-06T06:16:56.244Z,50.44
2019-05-06T06:19:15.563Z,50.39
2019-05-06T06:21:27.277Z,50.31
2019-05-06T06:23:24.494Z,50.28
2019-05-06T06:25:26.140Z,50.28
2019-05-06T06:27:27.746Z,50.40
2019-05-06T06:29:29.355Z,50.60
2019-05-06T06:31:33.610Z,50.82
2019-05-06T06:33:35.224Z,50.97
2019-05-06T06:35:37.693Z,51.04
2019-05-06T06:37:55.047Z,51.10
2019-05-06T06:39:56.640Z,50.94
2019-05-06T06:41:58.234Z,50.89
2019-05-06T06:44:02.272Z,50.68
2019-05-06T06:46:09.402Z,50.56
2019-05-06T06:48:09.563Z,50.43
2019-05-06T06:50:12.596Z,50.35
2019-05-06T06:52:14.899Z,50.33
2019-05-06T06:54:14.578Z,50.33
2019-05-06T06:56:18.857Z,50.35
2019-05-06T06:58:22.770Z,50.32
2019-05-06T07:00:26.624Z,50.32
2019-05-06T07:02:38.139Z,50.28
2019-05-06T07:04:43.103Z,50.25
2019-05-06T07:06:44.482Z,50.33
2019-05-06T07:08:46.062Z,50.29
2019-05-06T07:10:47.654Z,50.32
2019-05-06T07:12:49.265Z,50.28
2019-05-06T07:14:52.329Z,50.30
2019-05-06T07:16:53.321Z,50.31
2019-05-06T07:18:54.199Z,50.29
2019-05-06T07:21:06.428Z,50.32
2019-05-06T07:23:13.186Z,50.34
2019-05-06T07:25:14.808Z,50.28
2019-05-06T07:27:16.393Z,50.50
2019-05-06T07:29:23.351Z,50.51
2019-05-06T07:31:23.697Z,50.35
2019-05-06T07:33:22.954Z,50.27
2019-05-06T07:35:37.416Z,50.29
2019-05-06T07:37:24.760Z,50.25
2019-05-06T07:39:26.337Z,50.22
2019-05-06T07:41:36.178Z,50.30
2019-05-06T07:43:37.822Z,50.50
2019-05-06T07:45:42.345Z,50.56
2019-05-06T07:47:42.608Z,50.61
2019-05-06T07:49:43.544Z,50.67
2019-05-06T07:51:45.196Z,50.79
2019-05-06T07:53:46.789Z,50.82
2019-05-06T07:55:48.372Z,50.86
2019-05-06T07:57:52.191Z,50.87
2019-05-06T07:59:52.497Z,50.74
2019-05-06T08:01:54.070Z,50.74
2019-05-06T08:03:54.910Z,50.68
2019-05-06T08:05:58.827Z,50.67
2019-05-06T08:07:58.142Z,50.67
2019-05-06T08:10:01.939Z,50.32
2019-05-06T08:12:05.184Z,50.14
2019-05-06T08:14:06.758Z,50.08
2019-05-06T08:16:08.376Z,49.93
2019-05-06T08:18:09.982Z,49.88
2019-05-06T08:20:12.880Z,49.79
2019-05-06T08:22:13.826Z,49.71
2019-05-06T08:24:15.412Z,49.74
2019-05-06T08:26:18.004Z,49.73
2019-05-06T08:28:18.874Z,49.98
2019-05-06T08:30:22.893Z,49.85
2019-05-06T08:32:22.743Z,49.76
2019-05-06T08:34:23.884Z,49.67
2019-05-06T08:36:32.865Z,49.76
2019-05-06T08:38:32.756Z,49.73
2019-05-06T08:40:34.364Z,49.69
2019-05-06T08:42:35.984Z,49.77
2019-05-06T08:44:37.572Z,49.78
2019-05-06T08:46:39.209Z,49.89
2019-05-06T08:48:42.797Z,50.00
2019-05-06T08:50:43.133Z,50.07
2019-05-06T08:52:52.374Z,50.02
2019-05-06T08:54:52.650Z,50.00
2019-05-06T08:56:53.700Z,49.97
2019-05-06T08:58:55.451Z,50.01
2019-05-06T09:01:12.657Z,50.19
2019-05-06T09:03:14.456Z,50.06
2019-05-06T09:05:15.981Z,50.00
2019-05-06T09:07:17.588Z,50.04
2019-05-06T09:09:19.236Z,50.12
2019-05-06T09:11:23.688Z,50.40
2019-05-06T09:13:23.218Z,50.34
2019-05-06T09:15:24.216Z,50.53
2019-05-06T09:17:25.845Z,50.69
2019-05-06T09:19:27.419Z,50.60
2019-05-06T09:21:28.991Z,50.48
2019-05-06T09:23:32.397Z,50.66
2019-05-06T09:25:32.405Z,50.67
2019-05-06T09:27:39.592Z,50.49
2019-05-06T09:29:44.992Z,50.63
2019-05-06T09:31:47.436Z,50.64
2019-05-06T09:33:50.481Z,50.73
2019-05-06T09:35:52.874Z,50.78
2019-05-06T09:37:53.726Z,50.61
2019-05-06T09:39:55.380Z,50.51
2019-05-06T09:41:58.029Z,50.52
2019-05-06T09:43:58.684Z,50.51
2019-05-06T09:46:02.341Z,50.53
2019-05-06T09:48:12.646Z,50.49
2019-05-06T09:50:12.698Z,50.47
2019-05-06T09:52:13.927Z,50.30
2019-05-06T09:54:15.516Z,50.25
2019-05-06T09:56:18.644Z,50.17
2019-05-06T09:58:22.721Z,50.04
2019-05-06T10:00:23.526Z,50.06
2019-05-06T10:02:23.554Z,50.01
2019-05-06T10:04:25.126Z,49.88
2019-05-06T10:06:26.763Z,49.77
2019-05-06T10:08:28.376Z,49.66
2019-05-06T10:10:29.988Z,49.68
2019-05-06T10:12:32.907Z,49.54
2019-05-06T10:14:33.212Z,49.36
2019-05-06T10:16:34.846Z,49.41
2019-05-06T10:18:36.458Z,49.50
2019-05-06T10:20:38.048Z,49.62
2019-05-06T10:22:39.657Z,49.69
2019-05-06T10:24:43.230Z,49.81
2019-05-06T10:26:43.575Z,49.87
2019-05-06T10:28:46.644Z,49.94
2019-05-06T10:30:48.297Z,50.04
2019-05-06T10:32:49.893Z,50.05
2019-05-06T10:34:52.611Z,49.94
2019-05-06T10:36:53.378Z,49.91
2019-05-06T10:38:54.868Z,49.98
2019-05-06T10:41:03.511Z,50.07
2019-05-06T10:42:58.105Z,50.15
2019-05-06T10:45:01.680Z,50.16
2019-05-06T10:47:06.328Z,50.24
2019-05-06T10:49:07.926Z,50.37
2019-05-06T10:51:25.266Z,50.43
2019-05-06T10:53:26.879Z,50.47
2019-05-06T10:55:28.491Z,50.61
2019-05-06T10:57:32.842Z,50.70
2019-05-06T10:59:33.314Z,50.76
2019-05-06T11:01:38.772Z,50.79
2019-05-06T11:03:42.001Z,50.84
2019-05-06T11:05:43.173Z,50.80
2019-05-06T11:07:43.763Z,50.79
2019-05-06T11:09:45.364Z,50.78
2019-05-06T11:11:46.966Z,50.69
2019-05-06T11:13:48.596Z,50.52
2019-05-06T11:15:52.847Z,50.35
2019-05-06T11:17:51.816Z,49.98
2019-05-06T11:19:53.469Z,49.78
2019-05-06T11:21:55.043Z,49.67
2019-05-06T11:23:56.688Z,49.62
2019-05-06T11:25:58.296Z,49.54
2019-05-06T11:27:59.920Z,49.54
2019-05-06T11:30:07.246Z,49.55
2019-05-06T11:32:14.530Z,49.56
2019-05-06T11:34:23.644Z,49.55
2019-05-06T11:36:40.132Z,49.52
2019-05-06T11:38:43.189Z,49.58
2019-05-06T11:40:43.370Z,49.64
2019-05-06T11:42:44.977Z,49.58
2019-05-06T11:44:46.609Z,49.29
2019-05-06T11:46:48.241Z,49.41
2019-05-06T11:48:52.110Z,49.49
2019-05-06T11:50:51.487Z,49.51
2019-05-06T11:52:55.833Z,49.58
2019-05-06T11:54:54.760Z,49.70
2019-05-06T11:56:58.564Z,49.80
2019-05-06T11:58:58.112Z,49.94
2019-05-06T12:01:02.566Z,49.93
2019-05-06T12:03:06.394Z,49.98
2019-05-06T12:05:08.051Z,50.03
2019-05-06T12:07:12.283Z,50.11
2019-05-06T12:09:16.381Z,50.14
2019-05-06T12:11:13.091Z,50.17
2019-05-06T12:13:14.685Z,50.27
2019-05-06T12:15:16.280Z,50.33
2019-05-06T12:17:17.945Z,50.35
2019-05-06T12:19:19.547Z,50.33
2019-05-06T12:21:23.191Z,50.44
2019-05-06T12:23:22.864Z,50.44
2019-05-06T12:25:24.484Z,50.38
2019-05-06T12:27:32.724Z,50.38
2019-05-06T12:29:33.419Z,50.37
2019-05-06T12:31:35.047Z,50.37
2019-05-06T12:33:38.064Z,50.31
2019-05-06T12:35:39.676Z,50.22
2019-05-06T12:37:43.841Z,50.20
2019-05-06T12:39:43.220Z,50.05
2019-05-06T12:41:47.049Z,49.91
2019-05-06T12:43:48.704Z,49.60
2019-05-06T12:45:53.013Z,49.37
2019-05-06T12:47:53.358Z,49.50
2019-05-06T12:49:54.201Z,49.59
2019-05-06T12:51:55.840Z,49.67
2019-05-06T12:53:57.456Z,49.71
2019-05-06T12:55:59.139Z,49.67
2019-05-06T12:58:02.790Z,49.72
2019-05-06T13:00:09.220Z,49.84
2019-05-06T13:02:12.964Z,49.83
2019-05-06T13:04:13.551Z,49.89
2019-05-06T13:06:14.352Z,49.91
2019-05-06T13:08:19.914Z,49.99
2019-05-06T13:10:17.781Z,50.09
2019-05-06T13:12:19.387Z,49.95
2019-05-06T13:14:22.434Z,50.12
2019-05-06T13:16:22.948Z,50.50
2019-05-06T13:18:24.495Z,50.82
2019-05-06T13:20:26.104Z,51.05
2019-05-06T13:22:33.968Z,51.41
2019-05-06T13:24:34.958Z,51.41
2019-05-06T13:26:36.572Z,51.59
2019-05-06T13:28:38.224Z,51.48
2019-05-06T13:30:39.853Z,51.32
2019-05-06T13:32:43.349Z,51.22
2019-05-06T13:34:45.348Z,51.27
2019-05-06T13:36:46.979Z,51.37
2019-05-06T13:38:48.594Z,51.49
2019-05-06T13:40:54.939Z,51.44
2019-05-06T13:42:57.514Z,51.76
2019-05-06T13:44:59.148Z,51.66
2019-05-06T13:47:02.899Z,51.63
2019-05-06T13:49:22.702Z,51.83
2019-05-06T13:51:26.121Z,51.85
2019-05-06T13:53:39.309Z,52.06
2019-05-06T13:55:29.399Z,52.05
2019-05-06T13:57:32.062Z,52.29
2019-05-06T13:59:35.157Z,52.26
2019-05-06T14:01:34.385Z,52.25
2019-05-06T14:03:36.034Z,52.76
2019-05-06T14:05:37.620Z,52.48
2019-05-06T14:07:39.300Z,52.63
2019-05-06T14:09:43.481Z,52.90
2019-05-06T14:11:42.688Z,52.97
2019-05-06T14:13:44.305Z,52.96
2019-05-06T14:15:45.947Z,53.23
2019-05-06T14:17:47.724Z,53.08
2019-05-06T14:19:49.315Z,53.26
2019-05-06T14:21:52.298Z,53.25
2019-05-06T14:23:52.573Z,53.25
2019-05-06T14:26:09.064Z,53.40
2019-05-06T14:28:16.192Z,53.48
2019-05-06T14:30:18.271Z,53.50
2019-05-06T14:32:19.860Z,53.57
2019-05-06T14:34:22.979Z,53.67
2019-05-06T14:36:23.163Z,53.72
2019-05-06T14:38:24.878Z,54.12
2019-05-06T14:40:26.457Z,54.00
2019-05-06T14:42:28.044Z,53.90
2019-05-06T14:44:29.660Z,53.98
2019-05-06T14:46:33.133Z,54.32
2019-05-06T14:48:33.206Z,54.51
2019-05-06T14:50:45.121Z,54.32
2019-05-06T14:52:36.302Z,54.14
2019-05-06T14:54:43.527Z,54.06
2019-05-06T14:56:46.600Z,54.00
2019-05-06T14:58:54.040Z,54.19
2019-05-06T15:00:55.768Z,54.20
2019-05-06T15:02:57.387Z,54.29
2019-05-06T15:04:58.987Z,54.38
2019-05-06T15:07:02.126Z,54.43
2019-05-06T15:09:06.608Z,54.46
2019-05-06T15:11:08.218Z,54.20
2019-05-06T15:13:09.808Z,54.15
2019-05-06T15:15:12.186Z,53.47
2019-05-06T15:17:14.379Z,53.80
2019-05-06T15:19:14.768Z,52.79
2019-05-06T15:21:33.788Z,52.04
2019-05-06T15:23:18.181Z,51.85
2019-05-06T15:25:22.070Z,51.44
2019-05-06T15:27:22.732Z,51.08
2019-05-06T15:29:23.822Z,51.30
2019-05-06T15:31:27.479Z,51.72
2019-05-06T15:33:29.684Z,51.89
2019-05-06T15:35:37.363Z,52.44
2019-05-06T15:37:42.251Z,52.26
2019-05-06T15:39:43.616Z,52.86
2019-05-06T15:41:43.260Z,52.33
2019-05-06T15:43:44.886Z,52.09
2019-05-06T15:45:46.497Z,51.78
2019-05-06T15:47:48.376Z,52.00
2019-05-06T15:49:50.064Z,52.14
2019-05-06T15:51:52.267Z,52.07
2019-05-06T15:53:53.380Z,52.20
2019-05-06T15:55:54.996Z,52.13
2019-05-06T15:57:56.585Z,52.34
2019-05-06T15:59:58.209Z,51.92
2019-05-06T16:02:01.860Z,52.59
2019-05-06T16:04:06.505Z,52.71
2019-05-06T16:06:08.114Z,52.44
2019-05-06T16:08:09.724Z,52.95
2019-05-06T16:10:13.265Z,52.62
2019-05-06T16:12:13.001Z,52.92
2019-05-06T16:14:14.644Z,52.70
2019-05-06T16:16:16.254Z,53.15
2019-05-06T16:18:17.846Z,53.47
2019-05-06T16:20:19.468Z,53.20
2019-05-06T16:22:22.601Z,53.48
2019-05-06T16:24:39.274Z,53.75
2019-05-06T16:26:42.495Z,53.97
2019-05-06T16:28:45.033Z,54.18
2019-05-06T16:30:44.160Z,53.43
2019-05-06T16:32:45.758Z,54.32
2019-05-06T16:34:47.429Z,54.50
2019-05-06T16:36:49.084Z,53.33
2019-05-06T16:38:52.539Z,54.03
2019-05-06T16:41:02.185Z,54.22
2019-05-06T16:42:54.637Z,53.89
2019-05-06T16:44:55.630Z,54.07
2019-05-06T16:46:57.296Z,53.43
2019-05-06T16:48:58.874Z,53.70
2019-05-06T16:51:04.589Z,53.97
2019-05-06T16:53:05.683Z,52.41
2019-05-06T16:55:07.273Z,53.27
2019-05-06T16:57:13.508Z,53.05
2019-05-06T16:59:13.213Z,52.96
2019-05-06T17:01:15.252Z,52.73
2019-05-06T17:03:16.484Z,52.40
2019-05-06T17:05:33.852Z,52.64
2019-05-06T17:07:35.429Z,52.20
2019-05-06T17:09:37.071Z,52.07
2019-05-06T17:11:38.707Z,52.03
2019-05-06T17:13:40.296Z,52.11
2019-05-06T17:15:41.880Z,52.12
2019-05-06T17:17:46.824Z,52.19
2019-05-06T17:19:45.139Z,52.26
2019-05-06T17:21:48.453Z,52.28
2019-05-06T17:23:48.757Z,52.27
2019-05-06T17:25:52.093Z,52.59
2019-05-06T17:27:52.701Z,52.61
2019-05-06T17:29:54.450Z,52.64
2019-05-06T17:31:59.000Z,52.70
2019-05-06T17:34:06.864Z,52.99
2019-05-06T17:36:08.458Z,51.37
2019-05-06T17:38:10.164Z,52.23
2019-05-06T17:40:14.128Z,52.40
2019-05-06T17:42:14.063Z,52.36
2019-05-06T17:44:15.091Z,52.53
2019-05-06T17:46:17.396Z,52.67
2019-05-06T17:48:27.527Z,52.75
2019-05-06T17:50:26.230Z,52.65
2019-05-06T17:52:27.812Z,52.83
2019-05-06T17:54:29.401Z,52.75
2019-05-06T17:56:31.087Z,52.91
2019-05-06T17:58:33.235Z,52.24
2019-05-06T18:00:34.336Z,52.22
2019-05-06T18:02:35.932Z,52.59
2019-05-06T18:04:37.545Z,52.39
2019-05-06T18:06:39.166Z,51.59
2019-05-06T18:08:43.001Z,52.00
2019-05-06T18:10:42.759Z,51.51
2019-05-06T18:12:44.176Z,52.10
2019-05-06T18:14:46.530Z,52.65
2019-05-06T18:16:48.145Z,52.89
2019-05-06T18:18:52.154Z,52.91
2019-05-06T18:20:52.858Z,51.87
2019-05-06T18:22:53.172Z,52.41
2019-05-06T18:24:54.760Z,52.67
2019-05-06T18:26:56.396Z,52.95
2019-05-06T18:28:58.512Z,53.05
2019-05-06T18:30:59.654Z,53.24
2019-05-06T18:33:06.180Z,53.28
2019-05-06T18:35:07.766Z,52.80
2019-05-06T18:37:09.370Z,52.75
2019-05-06T18:39:12.626Z,52.93
2019-05-06T18:41:12.648Z,52.91
2019-05-06T18:43:14.712Z,53.22
2019-05-06T18:45:16.320Z,53.22
2019-05-06T18:47:17.908Z,53.45
2019-05-06T18:49:19.547Z,53.55
2019-05-06T18:51:22.414Z,53.68
2019-05-06T18:53:22.862Z,53.96
2019-05-06T18:55:24.472Z,54.01
2019-05-06T18:57:26.100Z,54.03
2019-05-06T18:59:27.796Z,54.27
2019-05-06T19:01:29.453Z,54.25
2019-05-06T19:03:31.972Z,54.51
2019-05-06T19:05:33.668Z,54.27
2019-05-06T19:07:35.275Z,54.13
2019-05-06T19:09:54.585Z,53.83
2019-05-06T19:11:56.307Z,53.99
2019-05-06T19:13:57.894Z,54.09
2019-05-06T19:15:59.476Z,53.87
2019-05-06T19:18:07.233Z,54.11
2019-05-06T19:20:09.417Z,54.26
2019-05-06T19:22:13.760Z,54.04
2019-05-06T19:24:12.700Z,54.34
2019-05-06T19:26:14.370Z,54.40
2019-05-06T19:28:16.739Z,54.21
2019-05-06T19:30:18.353Z,53.78
2019-05-06T19:32:22.566Z,53.79
2019-05-06T19:34:23.586Z,54.10
2019-05-06T19:36:24.143Z,54.64
2019-05-06T19:38:25.763Z,54.28
2019-05-06T19:40:27.344Z,54.75
2019-05-06T19:42:42.757Z,54.37
2019-05-06T19:44:30.708Z,54.63
2019-05-06T19:46:32.703Z,54.53
2019-05-06T19:48:33.968Z,54.21
2019-05-06T19:50:36.853Z,54.23
2019-05-06T19:52:37.272Z,54.31
2019-05-06T19:54:38.883Z,53.78
2019-05-06T19:56:42.295Z,53.67
2019-05-06T19:58:42.907Z,53.31
2019-05-06T20:00:44.002Z,52.99
2019-05-06T20:02:45.571Z,52.90
2019-05-06T20:04:47.180Z,52.59
2019-05-06T20:07:03.700Z,53.18
2019-05-06T20:09:22.084Z,52.53
2019-05-06T20:11:25.774Z,52.32
2019-05-06T20:13:27.369Z,52.19
2019-05-06T20:15:32.370Z,52.08
2019-05-06T20:17:34.002Z,52.09
2019-05-06T20:19:35.627Z,52.03
2019-05-06T20:21:37.228Z,52.38
2019-05-06T20:23:38.818Z,52.79
2019-05-06T20:25:44.408Z,53.03
2019-05-06T20:27:42.155Z,53.69
2019-05-06T20:29:43.767Z,53.90
2019-05-06T20:31:45.367Z,54.13
2019-05-06T20:33:47.017Z,54.26
2019-05-06T20:35:48.608Z,54.21
2019-05-06T20:37:50.184Z,54.42
2019-05-06T20:39:51.827Z,53.84
2019-05-06T20:41:53.431Z,53.64
2019-05-06T20:43:55.039Z,53.78
2019-05-06T20:45:56.622Z,53.91
2019-05-06T20:47:58.213Z,54.13
2019-05-06T20:50:02.235Z,54.59
2019-05-06T20:52:01.482Z,54.82
2019-05-06T20:54:03.092Z,55.13
2019-05-06T20:56:04.727Z,55.36
2019-05-06T20:58:06.335Z,55.57
2019-05-06T21:00:07.988Z,55.74
2019-05-06T21:02:09.612Z,55.79
2019-05-06T21:04:13.072Z,55.95
2019-05-06T21:06:13.293Z,56.02
2019-05-06T21:08:14.516Z,56.13
2019-05-06T21:10:16.104Z,56.14
2019-05-06T21:12:17.726Z,56.34
2019-05-06T21:14:19.387Z,56.50
2019-05-06T21:16:22.519Z,56.51
2019-05-06T21:18:23.012Z,56.40
2019-05-06T21:20:24.363Z,56.18
2019-05-06T21:22:26.080Z,55.91
2019-05-06T21:24:27.751Z,55.96
2019-05-06T21:26:29.326Z,56.01
2019-05-06T21:28:30.931Z,55.72
2019-05-06T21:30:32.586Z,55.73
2019-05-06T21:32:34.187Z,55.76
2019-05-06T21:34:35.776Z,55.71
2019-05-06T21:36:37.375Z,55.56
2019-05-06T21:38:38.988Z,55.85
2019-05-06T21:40:40.586Z,55.52
2019-05-06T21:42:43.134Z,55.54
2019-05-06T21:44:43.954Z,55.48
2019-05-06T21:46:45.526Z,55.51
2019-05-06T21:48:47.132Z,55.41
2019-05-06T21:50:48.728Z,55.16
2019-05-06T21:52:50.368Z,55.17
2019-05-06T21:54:52.573Z,55.26
2019-05-06T21:56:53.616Z,54.87
2019-05-06T21:58:55.238Z,55.70
2019-05-06T22:00:57.290Z,55.00
2019-05-06T22:02:58.933Z,55.25
2019-05-06T22:05:02.779Z,55.58
2019-05-06T22:07:03.016Z,55.43
2019-05-06T22:09:03.814Z,55.38
2019-05-06T22:11:05.399Z,55.38
2019-05-06T22:13:07.017Z,55.36
2019-05-06T22:15:08.614Z,55.18
2019-05-06T22:17:10.228Z,55.35
2019-05-06T22:19:12.216Z,55.54
2019-05-06T22:21:23.992Z,55.63
2019-05-06T22:23:25.625Z,55.55
2019-05-06T22:25:27.222Z,55.56
2019-05-06T22:27:28.812Z,55.85
2019-05-06T22:29:30.396Z,55.73
2019-05-06T22:31:33.094Z,55.70
2019-05-06T22:33:33.613Z,56.04
2019-05-06T22:35:35.200Z,55.83
2019-05-06T22:37:36.808Z,55.91
2019-05-06T22:39:38.411Z,56.06
2019-05-06T22:41:40.031Z,55.91
2019-05-06T22:43:42.361Z,56.24
2019-05-06T22:45:43.313Z,56.43
2019-05-06T22:47:44.913Z,56.37
2019-05-06T22:49:46.523Z,56.34
2019-05-06T22:51:48.102Z,56.26
2019-05-06T22:53:49.694Z,56.46
2019-05-06T22:55:51.322Z,56.41
2019-05-06T22:57:53.020Z,56.58
2019-05-06T22:59:54.629Z,56.78
2019-05-06T23:02:13.024Z,56.71
2019-05-06T23:04:12.751Z,56.52
2019-05-06T23:06:14.384Z,56.97
2019-05-06T23:08:15.977Z,57.20
2019-05-06T23:10:17.592Z,57.19
2019-05-06T23:12:19.195Z,57.44
2019-05-06T23:14:30.660Z,57.39
2019-05-06T23:16:22.525Z,57.44
2019-05-06T23:18:24.352Z,57.67
2019-05-06T23:20:25.764Z,57.71
2019-05-06T23:22:27.384Z,58.07
2019-05-06T23:24:29.002Z,57.94
2019-05-06T23:26:30.693Z,56.44
2019-05-06T23:28:32.308Z,56.38
2019-05-06T23:30:33.892Z,55.83
2019-05-06T23:32:35.560Z,55.95
2019-05-06T23:34:37.148Z,55.64
2019-05-06T23:36:38.759Z,55.67
2019-05-06T23:38:40.348Z,56.22
2019-05-06T23:40:42.775Z,56.05
2019-05-06T23:42:43.660Z,55.77
2019-05-06T23:44:46.288Z,55.98
2019-05-06T23:46:46.895Z,56.10
2019-05-06T23:48:48.489Z,56.14
2019-05-06T23:50:50.072Z,55.87
2019-05-06T23:52:52.027Z,56.13
2019-05-06T23:54:53.328Z,56.05
2019-05-06T23:56:54.978Z,55.96
2019-05-06T23:58:56.613Z,55.77
